Schenectady, NY

11:39 PM EST on March 01, 2015 (GMT -0500)
Daily Gazette | Change Station
CLOSE
Current Station
Personal Weather Station
Location: Schenectady, NY
Elevation: 295 ft
Nearby Weather Stations

Elev 295 ft 42.83 °N, 73.92 °W | Updated 14 seconds ago

Light Snow
Light Snow
21.0 °F
Feels Like 21 °F
N
0.0
Wind Variable Wind from SSW
Gusts 2.0 mph

Today
High -- | Low -- °F
--% Chance of Precip.
Yesterday
High -- | Low -- °F
Precip. -- in
6:31 AM 5:44 PM
Waxing Gibbous, 89% visible
Pressure 30.15 in
Visibility 3.0 miles
Clouds Mostly Cloudy 900 ft
Overcast 2600 ft
Windchill 21 °F
Dew Point 21 °F
Humidity 100%
Rainfall 0.00 in
Snow Depth Not available.
UV 0 out of 12
Pollen .40 out of 12
Air Quality Not available.
Flu Activity Not available.
METAR KSCH 020245Z 00000KT 3SM -SN BKN009 OVC026 M05/M07 A3015

More Conditions Fewer Conditions

Pressure 30.15 in
Visibility 3.0 miles
Clouds Mostly Cloudy 900 ft
Overcast 2600 ft
Windchill 21 °F
Dew Point 21 °F
Humidity 100%
Rainfall 0.00 in
Snow Depth Not available.
UV 0 out of 12
Pollen .40 out of 12
Air Quality Not available.
Flu Activity Not available.
METAR KSCH 020245Z 00000KT 3SM -SN BKN009 OVC026 M05/M07 A3015

More Conditions Fewer Conditions

10-Day Weather Forecast

Almanac

Astronomy

Mar. 01, 2015 Rise Set
Actual Time
Civil Twilight
Nautical Twilight
Astronomical Twilight
Moon
Length of Visible Light
Length of Day
Tomorrow will be .
, % of the Moon is Illuminated

Today's Extremes

State Highs State Lows

Community

WunderPhotos

Upload Photos

1,801,724 photos uploaded!

WunderBlogs® & News

Nearby

Air Quality

  Air Quality AQ Index Pollutant
Not available.

Snow Depth

Station Depth Elevation

Earthquake Activity

City Distance Mag. Time & Date
Minimum magnitude displayed is 2.5.

Coastal Water Temperatures

Place Temperature

Nearby Weather Stations